createdAt,value
2022-12-29T06:09:06.688Z,99557.88
2022-12-29T06:12:11.319Z,99555.91
2022-12-29T06:15:17.302Z,99566.72
2022-12-29T06:18:22.872Z,99555.41
2022-12-29T06:21:26.850Z,99548.25
2022-12-29T06:24:31.954Z,99549.13
2022-12-29T18:23:59.839Z,100040.78
2022-12-29T18:27:11.472Z,100049.72
2022-12-29T18:30:15.306Z,100057.13
2022-12-29T18:33:23.296Z,100049.31
2022-12-29T18:36:29.033Z,100051.28
2022-12-29T18:39:34.374Z,100050.22
2022-12-29T18:42:38.126Z,100059.22
2022-12-29T18:45:41.909Z,100055.25
2022-12-29T18:48:45.619Z,100050.69
2022-12-29T18:51:49.402Z,100056.78
2022-12-29T18:54:55.090Z,100062.75
2022-12-29T18:58:00.606Z,100047.50
2022-12-29T19:01:04.798Z,100055.28
2022-12-29T19:04:08.624Z,100057.25
2022-12-29T19:07:12.440Z,100049.78
2022-12-29T19:10:17.913Z,100042.47
2022-12-29T19:13:28.793Z,100036.38
2022-12-29T19:16:32.858Z,100031.91
2022-12-29T19:19:36.738Z,100044.13
2022-12-29T19:22:40.499Z,100051.00
2022-12-29T19:25:47.194Z,100048.38
2022-12-29T19:28:51.588Z,100048.88
2022-12-29T19:31:55.453Z,100054.16
2022-12-29T19:34:59.599Z,100055.06
2022-12-29T19:38:03.355Z,100054.97
2022-12-29T19:41:09.473Z,100062.75
2022-12-29T19:44:13.192Z,100058.47
2022-12-29T19:47:20.682Z,100060.75
2022-12-29T19:50:24.641Z,100064.94
2022-12-29T19:53:28.450Z,100058.53
2022-12-29T19:56:33.810Z,100061.38
2022-12-29T19:59:37.531Z,100068.84
2022-12-29T20:02:41.990Z,100069.31
2022-12-29T20:05:49.418Z,100059.94
2022-12-29T20:08:53.164Z,100068.69
2022-12-29T20:11:58.258Z,100067.53
2022-12-29T20:15:02.121Z,100073.88
2022-12-29T20:18:13.658Z,100063.94
2022-12-29T20:21:20.356Z,100067.16
2022-12-29T20:24:24.148Z,100057.25
2022-12-29T20:27:29.310Z,100065.00
2022-12-29T20:30:33.146Z,100065.31
2022-12-29T20:33:37.167Z,100077.22
2022-12-29T20:36:43.738Z,100096.25
2022-12-29T20:39:47.694Z,100094.31
2022-12-29T20:42:52.937Z,100105.09
2022-12-29T20:45:56.770Z,100100.09
2022-12-29T20:49:01.086Z,100097.16
2022-12-29T20:52:07.333Z,100097.47
2022-12-29T20:55:11.280Z,100104.19
2022-12-29T20:58:24.437Z,100100.94
2022-12-29T21:01:29.184Z,100110.38
2022-12-29T21:04:57.647Z,100113.47
2022-12-29T21:07:59.601Z,100116.22
2022-12-29T21:11:03.871Z,100129.94
2022-12-29T21:14:09.202Z,100125.69
2022-12-29T21:17:12.969Z,100133.44
2022-12-29T21:20:30.022Z,100145.06
2022-12-29T21:23:34.599Z,100144.72
2022-12-29T21:26:38.340Z,100149.31
2022-12-29T21:29:43.545Z,100144.59
2022-12-29T21:32:47.389Z,100145.78
2022-12-29T21:35:51.214Z,100141.06
2022-12-29T21:38:55.808Z,100144.00
2022-12-29T21:42:00.491Z,100148.25
2022-12-29T21:45:24.162Z,100150.22
2022-12-29T21:48:30.192Z,100154.59
2022-12-29T21:51:53.861Z,100157.06
2022-12-29T21:55:05.167Z,100152.56
2022-12-29T21:58:27.026Z,100157.75
2022-12-29T22:01:51.835Z,100216.03
2022-12-29T22:05:13.344Z,100236.56
2022-12-29T22:08:34.317Z,100215.06
2022-12-29T22:11:55.667Z,100209.28
